createdAt,value
2022-11-24T00:00:37.672Z,1.20
2022-11-24T00:03:05.869Z,1.42
2022-11-24T00:05:33.294Z,1.52
2022-11-24T00:08:00.484Z,1.30
2022-11-24T00:10:27.682Z,1.10
2022-11-24T00:12:54.810Z,1.10
2022-11-24T00:15:21.998Z,1.50
2022-11-24T00:17:49.151Z,1.40
2022-11-24T00:20:16.361Z,1.80
2022-11-24T00:22:43.576Z,1.55
2022-11-24T00:25:10.835Z,2.38
2022-11-24T00:27:38.047Z,1.58
2022-11-24T00:30:05.238Z,1.60
2022-11-24T00:32:32.368Z,1.95
2022-11-24T00:34:59.576Z,1.77
2022-11-24T00:37:26.758Z,2.10
2022-11-24T00:39:53.999Z,2.10
2022-11-24T00:42:21.143Z,2.22
2022-11-24T00:44:48.349Z,3.53
2022-11-24T00:47:15.558Z,2.42
2022-11-24T00:49:42.793Z,3.30
2022-11-24T00:52:09.966Z,2.13
2022-11-24T00:54:37.142Z,2.55
2022-11-24T00:57:04.326Z,2.33
2022-11-24T00:59:32.627Z,2.38
2022-11-24T01:01:59.842Z,2.97
2022-11-24T01:04:27.103Z,2.40
2022-11-24T01:06:54.332Z,2.63
2022-11-24T01:09:21.539Z,2.97
2022-11-24T01:12:04.327Z,2.17
2022-11-24T01:14:32.196Z,2.15
2022-11-24T01:16:59.640Z,2.40
2022-11-24T01:19:26.842Z,2.45
2022-11-24T01:21:54.073Z,2.28
2022-11-24T01:24:21.267Z,2.58
2022-11-24T01:26:48.423Z,5.43
2022-11-24T01:29:15.615Z,5.15
2022-11-24T01:31:42.786Z,2.85
2022-11-24T01:34:10.051Z,4.60
2022-11-24T01:36:37.209Z,2.53
2022-11-24T01:39:04.419Z,2.85
2022-11-24T01:41:31.603Z,2.33
2022-11-24T01:43:58.848Z,2.10
2022-11-24T01:46:26.030Z,2.67
2022-11-24T01:48:53.240Z,1.98
2022-11-24T01:51:20.386Z,2.05
2022-11-24T01:53:47.559Z,2.00
2022-11-24T01:56:14.730Z,1.85
2022-11-24T01:58:41.924Z,2.40
2022-11-24T02:01:09.121Z,1.40
2022-11-24T02:03:36.411Z,1.88
2022-11-24T02:06:03.589Z,1.58
2022-11-24T02:08:30.801Z,2.33
2022-11-24T02:10:57.981Z,1.63
2022-11-24T02:13:25.235Z,1.50
2022-11-24T02:15:52.394Z,1.58
2022-11-24T02:18:19.656Z,1.17
2022-11-24T02:20:46.811Z,2.53
2022-11-24T02:23:14.065Z,1.40
2022-11-24T02:25:41.213Z,1.38
2022-11-24T02:28:08.506Z,1.85
2022-11-24T02:30:35.735Z,1.38
2022-11-24T02:33:02.993Z,1.60
2022-11-24T02:35:30.110Z,1.92
2022-11-24T02:37:57.370Z,1.55
2022-11-24T02:40:25.650Z,1.55
2022-11-24T02:42:52.836Z,1.67
2022-11-24T02:45:19.960Z,2.30
2022-11-24T02:47:47.268Z,1.98
2022-11-24T02:50:14.423Z,1.92
2022-11-24T02:52:41.618Z,3.20
2022-11-24T02:55:08.766Z,3.53
2022-11-24T02:57:35.923Z,2.58
2022-11-24T03:00:03.186Z,3.80
2022-11-24T03:02:30.392Z,2.30
2022-11-24T03:04:57.636Z,1.88
2022-11-24T03:07:24.896Z,2.53
2022-11-24T03:09:52.204Z,2.53
2022-11-24T03:12:19.359Z,2.78
2022-11-24T03:14:46.608Z,2.45
2022-11-24T03:17:13.787Z,2.65
2022-11-24T03:19:40.994Z,2.20
2022-11-24T03:22:08.157Z,2.42
2022-11-24T03:24:35.629Z,2.63
2022-11-24T03:27:02.980Z,2.28
2022-11-24T03:29:30.188Z,3.20
2022-11-24T03:31:57.783Z,2.55
2022-11-24T03:34:24.975Z,2.88
2022-11-24T03:36:52.232Z,2.53
2022-11-24T03:39:19.414Z,2.25
2022-11-24T03:41:46.645Z,2.85
2022-11-24T03:44:13.850Z,3.97
2022-11-24T03:46:41.033Z,3.30
2022-11-24T03:49:08.285Z,2.42
2022-11-24T03:51:35.450Z,2.75
2022-11-24T03:54:02.652Z,2.60
2022-11-24T03:56:29.799Z,2.78
2022-11-24T03:58:57.073Z,4.05
2022-11-24T04:01:24.262Z,3.22
2022-11-24T04:03:51.491Z,3.55
2022-11-24T04:06:18.664Z,3.13
2022-11-24T04:08:45.887Z,2.67
2022-11-24T04:11:33.029Z,3.38
2022-11-24T04:14:00.232Z,3.05
2022-11-24T04:16:27.551Z,2.30
2022-11-24T04:18:54.767Z,3.85
2022-11-24T04:21:22.007Z,3.17
2022-11-24T04:23:49.180Z,4.15
2022-11-24T04:26:16.376Z,3.20
2022-11-24T04:28:43.542Z,2.50
2022-11-24T04:31:10.764Z,3.55
2022-11-24T04:33:37.921Z,3.17
2022-11-24T04:36:05.229Z,3.88
2022-11-24T04:39:25.983Z,3.00
2022-11-24T04:41:19.633Z,2.58
2022-11-24T04:43:46.771Z,4.30
2022-11-24T04:46:14.033Z,3.78
2022-11-24T04:48:41.254Z,3.03
2022-11-24T04:51:08.431Z,3.30
2022-11-24T04:53:35.610Z,3.65
2022-11-24T04:56:03.072Z,4.65
2022-11-24T04:58:30.488Z,5.10
2022-11-24T05:00:57.672Z,3.78
2022-11-24T05:03:24.830Z,3.33
2022-11-24T05:05:52.031Z,3.08
2022-11-24T05:08:19.184Z,3.63
2022-11-24T05:10:46.437Z,3.63
2022-11-24T05:13:13.585Z,3.17
2022-11-24T05:15:40.803Z,4.22
2022-11-24T05:18:08.059Z,3.50
2022-11-24T05:20:35.308Z,4.15
2022-11-24T05:23:02.879Z,2.72
2022-11-24T05:25:30.125Z,4.07
2022-11-24T05:27:57.316Z,3.95
2022-11-24T05:30:24.510Z,3.25
2022-11-24T05:32:51.774Z,3.70
2022-11-24T05:35:19.039Z,4.30
2022-11-24T05:37:47.535Z,5.10
2022-11-24T05:40:14.721Z,4.88
2022-11-24T05:42:46.796Z,3.33
2022-11-24T05:45:15.142Z,4.68
2022-11-24T05:47:42.294Z,3.20
2022-11-24T05:50:09.547Z,5.40
2022-11-24T05:52:36.815Z,4.63
2022-11-24T05:55:03.978Z,3.60
2022-11-24T05:57:31.156Z,4.13
2022-11-24T05:59:58.370Z,4.40
2022-11-24T06:02:25.670Z,3.72
2022-11-24T06:04:52.901Z,3.58
2022-11-24T06:07:20.238Z,3.00
2022-11-24T06:09:47.549Z,5.65
2022-11-24T06:12:14.822Z,3.42
2022-11-24T06:14:42.000Z,5.65
2022-11-24T06:17:09.291Z,3.47
2022-11-24T06:19:41.763Z,4.10
2022-11-24T06:22:09.390Z,3.88
2022-11-24T06:24:36.643Z,3.63
2022-11-24T06:27:04.037Z,3.90
2022-11-24T06:29:31.202Z,4.22
2022-11-24T06:31:58.477Z,4.05
2022-11-24T06:34:25.826Z,4.65
2022-11-24T06:36:53.071Z,4.03
2022-11-24T06:39:20.211Z,4.20
2022-11-24T06:41:47.435Z,4.25
2022-11-24T06:44:14.604Z,3.45
2022-11-24T06:46:41.844Z,3.53
2022-11-24T06:49:09.056Z,3.05
2022-11-24T06:51:36.271Z,4.63
2022-11-24T06:54:03.821Z,4.10
2022-11-24T06:56:31.007Z,5.13
2022-11-24T06:58:58.278Z,3.80
2022-11-24T07:01:25.642Z,4.55
2022-11-24T07:03:52.989Z,4.40
2022-11-24T07:06:20.205Z,4.22
2022-11-24T07:08:47.430Z,4.85
2022-11-24T07:11:15.621Z,4.22
2022-11-24T07:13:42.947Z,3.17
2022-11-24T07:16:10.143Z,4.50
2022-11-24T07:18:37.468Z,4.13
2022-11-24T07:21:04.624Z,3.50
2022-11-24T07:23:31.812Z,4.65
2022-11-24T07:26:03.698Z,5.15
2022-11-24T07:28:33.782Z,3.13
2022-11-24T07:31:00.969Z,3.50
2022-11-24T07:33:28.234Z,3.47
2022-11-24T07:35:55.859Z,5.50
2022-11-24T07:38:23.063Z,3.55
2022-11-24T07:40:50.239Z,4.40
2022-11-24T07:43:20.308Z,3.67
2022-11-24T07:45:49.305Z,5.30
2022-11-24T07:48:16.493Z,3.70
2022-11-24T07:50:43.714Z,4.82
2022-11-24T07:53:10.866Z,3.30
2022-11-24T07:55:38.142Z,3.72
2022-11-24T07:58:05.326Z,3.47
2022-11-24T08:00:32.558Z,2.80
2022-11-24T08:02:59.728Z,2.60
2022-11-24T08:05:27.084Z,3.53
2022-11-24T08:07:54.292Z,4.18
2022-11-24T08:10:21.687Z,4.43
2022-11-24T08:12:48.857Z,4.00
2022-11-24T08:15:16.135Z,4.20
2022-11-24T08:17:43.309Z,5.00
2022-11-24T08:20:10.548Z,4.35
2022-11-24T08:22:37.759Z,5.55
2022-11-24T08:25:05.000Z,4.20
2022-11-24T08:27:32.172Z,8.70
2022-11-24T08:29:59.423Z,3.67
2022-11-24T08:32:26.611Z,4.57
2022-11-24T08:34:59.473Z,6.03
2022-11-24T08:37:30.657Z,4.72
2022-11-24T08:39:57.916Z,4.78
2022-11-24T08:42:25.155Z,5.18
2022-11-24T08:44:58.792Z,4.15
2022-11-24T08:47:26.412Z,3.50
2022-11-24T08:49:53.559Z,4.07
2022-11-24T08:52:20.780Z,4.50
2022-11-24T08:54:48.085Z,4.25
2022-11-24T08:57:20.300Z,5.13
2022-11-24T08:59:49.102Z,4.23
2022-11-24T09:02:16.276Z,4.05
2022-11-24T09:04:44.440Z,3.53
2022-11-24T09:07:11.761Z,4.18
2022-11-24T09:09:39.092Z,4.35
2022-11-24T09:12:09.975Z,4.45
2022-11-24T09:14:41.488Z,3.72
2022-11-24T09:17:08.696Z,4.10
2022-11-24T09:19:36.384Z,5.13
2022-11-24T09:22:03.685Z,4.93
2022-11-24T09:24:30.881Z,7.18
2022-11-24T09:26:58.025Z,5.53
2022-11-24T09:29:25.331Z,4.78
2022-11-24T09:31:52.539Z,4.32
2022-11-24T09:34:19.832Z,5.20
2022-11-24T09:36:47.116Z,5.40
2022-11-24T09:39:14.353Z,4.45
2022-11-24T09:41:41.507Z,4.93
2022-11-24T09:44:08.769Z,5.38
2022-11-24T09:46:36.014Z,5.55
2022-11-24T09:49:03.594Z,5.30
2022-11-24T09:51:30.800Z,4.65
2022-11-24T09:53:58.006Z,7.68
2022-11-24T09:56:25.245Z,5.05
2022-11-24T09:58:52.398Z,7.45
2022-11-24T10:01:19.701Z,4.32
2022-11-24T10:03:46.902Z,6.40
2022-11-24T10:06:14.163Z,7.45
2022-11-24T10:08:41.341Z,6.22
2022-11-24T10:11:08.554Z,5.88
2022-11-24T10:13:35.709Z,5.85
2022-11-24T10:16:03.042Z,6.75
2022-11-24T10:18:30.289Z,7.35
2022-11-24T10:20:57.480Z,5.97
2022-11-24T10:23:24.687Z,6.38
2022-11-24T10:25:51.912Z,5.97
2022-11-24T10:28:19.132Z,8.23
2022-11-24T10:30:46.404Z,6.82
2022-11-24T10:33:13.567Z,7.32
2022-11-24T10:35:40.907Z,8.38
2022-11-24T10:38:08.346Z,8.73
2022-11-24T10:43:22.774Z,8.43
2022-11-24T10:45:50.005Z,8.15
2022-11-24T10:48:17.289Z,8.00
2022-11-24T10:50:44.600Z,8.18
2022-11-24T10:53:11.794Z,7.47
2022-11-24T10:55:38.951Z,9.68
2022-11-24T10:58:06.226Z,10.60
2022-11-24T11:00:34.283Z,10.75
2022-11-24T11:03:01.586Z,8.02
2022-11-24T11:05:28.889Z,6.38
2022-11-24T11:07:59.686Z,8.07
2022-11-24T11:10:31.146Z,5.30
2022-11-24T11:12:58.359Z,7.40
2022-11-24T11:15:25.515Z,6.18
2022-11-24T11:17:54.650Z,5.25
2022-11-24T11:20:21.780Z,6.88
2022-11-24T11:22:49.039Z,5.90
2022-11-24T11:25:16.188Z,6.10
2022-11-24T11:27:43.374Z,5.18
2022-11-24T11:35:44.966Z,6.07
2022-11-24T11:38:12.145Z,5.35
2022-11-24T11:40:40.002Z,7.00
2022-11-24T11:43:07.217Z,3.97
2022-11-24T11:45:34.620Z,6.10
2022-11-24T11:48:01.808Z,4.85
2022-11-24T11:50:30.267Z,5.40
2022-11-24T11:52:57.554Z,5.28
2022-11-24T11:55:24.760Z,4.85
2022-11-24T11:57:51.917Z,6.05
2022-11-24T12:00:19.119Z,4.47
2022-11-24T12:02:52.893Z,4.63
2022-11-24T12:05:21.276Z,6.55
2022-11-24T12:07:48.652Z,6.45
2022-11-24T12:10:16.275Z,4.68
2022-11-24T12:12:43.464Z,5.50
2022-11-24T12:15:11.247Z,4.30
2022-11-24T12:17:38.521Z,3.70
2022-11-24T12:20:05.772Z,3.83
2022-11-24T12:22:32.986Z,6.38
2022-11-24T12:25:00.270Z,3.88
2022-11-24T12:27:27.574Z,3.33
2022-11-24T12:29:54.796Z,5.25
2022-11-24T12:32:21.956Z,4.40
2022-11-24T12:34:49.280Z,5.72
2022-11-24T12:37:16.492Z,4.20
2022-11-24T12:39:43.718Z,4.65
2022-11-24T12:42:12.212Z,7.55
2022-11-24T12:44:39.414Z,5.88
2022-11-24T12:47:06.633Z,6.00
2022-11-24T12:49:34.172Z,5.00
2022-11-24T12:52:01.644Z,4.00
2022-11-24T12:54:28.871Z,4.18
2022-11-24T12:56:56.232Z,6.15
2022-11-24T12:59:23.440Z,4.63
2022-11-24T13:01:50.765Z,4.55
2022-11-24T13:04:18.183Z,5.03
2022-11-24T13:06:49.309Z,4.72
2022-11-24T13:09:17.119Z,4.70
2022-11-24T13:11:44.328Z,3.85
2022-11-24T13:14:11.503Z,4.88
2022-11-24T13:16:53.248Z,4.03
2022-11-24T13:19:25.927Z,4.68
2022-11-24T13:21:53.430Z,4.80
2022-11-24T13:24:20.640Z,4.43
2022-11-24T13:26:48.589Z,4.90
2022-11-24T13:29:24.779Z,4.63
2022-11-24T13:31:52.850Z,4.15
2022-11-24T13:34:20.089Z,3.85
2022-11-24T13:36:47.385Z,6.75
2022-11-24T13:39:14.649Z,4.78
2022-11-24T13:41:41.854Z,4.75
2022-11-24T13:44:09.013Z,5.53
2022-11-24T13:46:36.293Z,5.15
2022-11-24T13:49:03.479Z,4.10
2022-11-24T13:51:30.757Z,5.10
2022-11-24T13:53:58.099Z,4.82
2022-11-24T13:56:25.355Z,3.83
2022-11-24T13:58:52.590Z,4.50
2022-11-24T14:01:20.062Z,5.78
2022-11-24T14:04:07.267Z,4.78
2022-11-24T14:06:34.593Z,5.82
2022-11-24T14:09:01.954Z,5.68
2022-11-24T14:11:29.231Z,3.70
2022-11-24T14:13:56.456Z,4.32
2022-11-24T14:16:23.840Z,4.75
2022-11-24T14:18:51.054Z,4.50
2022-11-24T14:21:18.257Z,4.05
2022-11-24T14:23:45.444Z,4.88
2022-11-24T14:26:12.731Z,5.25
2022-11-24T14:28:39.922Z,3.85
2022-11-24T14:31:07.287Z,4.82
2022-11-24T14:33:34.500Z,4.90
2022-11-24T14:36:01.738Z,3.85
2022-11-24T14:38:29.002Z,5.20
2022-11-24T14:40:56.260Z,7.95
2022-11-24T14:43:23.509Z,4.75
2022-11-24T14:45:50.818Z,7.57
2022-11-24T14:48:18.041Z,3.67
2022-11-24T14:50:45.226Z,4.55
2022-11-24T14:53:12.547Z,5.95
2022-11-24T14:55:39.787Z,6.03
2022-11-24T14:58:07.037Z,4.30
2022-11-24T15:00:34.311Z,6.32
2022-11-24T15:03:01.678Z,5.03
2022-11-24T15:05:28.915Z,3.97
2022-11-24T15:07:56.299Z,4.18
2022-11-24T15:10:26.560Z,5.72
2022-11-24T15:12:57.434Z,3.67
2022-11-24T15:15:24.704Z,7.13
2022-11-24T15:17:52.250Z,5.38
2022-11-24T15:20:19.578Z,6.55
2022-11-24T15:22:46.797Z,4.63
2022-11-24T15:25:13.958Z,5.03
2022-11-24T15:27:41.227Z,6.75
2022-11-24T15:30:08.465Z,5.03
2022-11-24T15:32:35.726Z,4.25
2022-11-24T15:35:03.055Z,3.80
2022-11-24T15:37:34.134Z,4.45
2022-11-24T15:40:01.474Z,4.72
2022-11-24T15:42:28.646Z,4.32
2022-11-24T15:44:55.951Z,4.45
2022-11-24T15:47:23.159Z,5.38
2022-11-24T15:49:50.446Z,4.50
2022-11-24T15:52:20.534Z,5.03
2022-11-24T15:54:47.752Z,3.63
2022-11-24T15:57:14.940Z,3.70
2022-11-24T15:59:42.225Z,3.03
2022-11-24T16:02:09.489Z,4.82
2022-11-24T16:04:36.912Z,4.07
2022-11-24T16:07:06.738Z,5.38
2022-11-24T16:09:33.927Z,3.85
2022-11-24T16:12:02.091Z,3.13
2022-11-24T16:14:29.419Z,4.75
2022-11-24T16:16:56.644Z,2.47
2022-11-24T16:19:23.904Z,2.42
2022-11-24T16:21:51.065Z,1.85
2022-11-24T16:24:18.292Z,1.92
2022-11-24T16:26:45.519Z,2.00
2022-11-24T16:29:12.934Z,1.70
2022-11-24T16:31:40.247Z,1.27
2022-11-24T16:34:07.525Z,1.70
2022-11-24T16:36:34.669Z,2.15
2022-11-24T16:39:01.874Z,1.73
2022-11-24T16:41:29.049Z,1.67
2022-11-24T16:43:56.281Z,1.52
2022-11-24T16:46:23.591Z,1.00
2022-11-24T16:48:50.933Z,2.05
2022-11-24T16:51:18.095Z,1.35
2022-11-24T16:53:45.348Z,2.42
2022-11-24T16:56:12.566Z,1.40
2022-11-24T16:58:39.809Z,0.80
2022-11-24T17:01:07.089Z,0.80
2022-11-24T17:03:37.079Z,0.60
2022-11-24T17:06:04.386Z,0.70
2022-11-24T17:08:31.935Z,1.00
2022-11-24T17:10:59.239Z,1.27
2022-11-24T17:13:26.378Z,0.80
2022-11-24T17:15:54.454Z,2.38
2022-11-24T17:18:24.983Z,1.10
2022-11-24T17:20:52.794Z,3.25
2022-11-24T17:23:19.990Z,2.10
2022-11-24T17:25:48.461Z,2.50
2022-11-24T17:28:15.770Z,2.58
2022-11-24T17:30:43.012Z,2.50
2022-11-24T17:33:10.291Z,3.00
2022-11-24T17:35:37.551Z,3.13
2022-11-24T17:38:04.840Z,2.42
2022-11-24T17:40:32.056Z,2.55
2022-11-24T17:42:59.688Z,3.33
2022-11-24T17:45:27.150Z,5.03
2022-11-24T17:47:54.502Z,3.40
2022-11-24T17:50:25.766Z,3.28
2022-11-24T17:52:53.684Z,4.60
2022-11-24T17:55:20.835Z,4.05
2022-11-24T17:57:48.096Z,5.13
2022-11-24T18:00:15.268Z,3.78
2022-11-24T18:02:42.595Z,4.38
2022-11-24T18:05:09.855Z,3.17
2022-11-24T18:07:37.140Z,5.45
2022-11-24T18:10:04.436Z,2.92
2022-11-24T18:12:31.675Z,4.22
2022-11-24T18:14:59.083Z,4.13
2022-11-24T18:17:26.365Z,4.68
2022-11-24T18:19:53.576Z,3.55
2022-11-24T18:22:36.696Z,5.78
2022-11-24T18:25:07.995Z,5.00
2022-11-24T18:27:35.212Z,5.25
2022-11-24T18:30:02.513Z,6.80
2022-11-24T18:32:29.678Z,4.38
2022-11-24T18:34:56.900Z,3.40
2022-11-24T18:37:24.052Z,6.45
2022-11-24T18:39:51.269Z,5.28
2022-11-24T18:42:18.534Z,4.45
2022-11-24T18:44:49.741Z,4.55
2022-11-24T18:47:19.818Z,3.10
2022-11-24T18:49:47.016Z,6.78
2022-11-24T18:52:14.247Z,4.68
2022-11-24T18:54:41.823Z,4.32
2022-11-24T18:57:09.032Z,4.30
2022-11-24T18:59:36.840Z,4.32
2022-11-24T19:02:04.204Z,4.75
2022-11-24T19:04:31.427Z,4.65
2022-11-24T19:06:58.655Z,4.60
2022-11-24T19:09:25.901Z,7.43
2022-11-24T19:11:53.227Z,5.00
2022-11-24T19:14:20.517Z,6.57
2022-11-24T19:16:48.372Z,6.05
2022-11-24T19:19:17.056Z,3.65
2022-11-24T19:21:44.377Z,4.85
2022-11-24T19:24:11.699Z,4.82
2022-11-24T19:26:38.934Z,5.68
2022-11-24T19:29:06.172Z,5.70
2022-11-24T19:31:33.504Z,4.75
2022-11-24T19:34:02.908Z,5.80
2022-11-24T19:36:30.185Z,5.78
2022-11-24T19:38:57.476Z,4.68
2022-11-24T19:41:24.685Z,5.80
2022-11-24T19:43:55.030Z,4.93
2022-11-24T19:46:22.419Z,5.45
2022-11-24T19:48:57.114Z,5.35
2022-11-24T19:51:25.588Z,6.00
2022-11-24T19:53:53.052Z,6.50
2022-11-24T19:56:20.261Z,5.60
2022-11-24T19:58:47.423Z,6.00
2022-11-24T20:01:14.710Z,4.75
2022-11-24T20:03:42.016Z,7.65
2022-11-24T20:06:09.372Z,8.00
2022-11-24T20:08:36.514Z,7.05
2022-11-24T20:11:03.879Z,6.70
2022-11-24T20:13:31.054Z,5.82
2022-11-24T20:15:58.231Z,5.65
2022-11-24T20:18:27.143Z,5.65
2022-11-24T20:20:54.463Z,6.25
2022-11-24T20:23:21.670Z,5.28
2022-11-24T20:25:48.994Z,6.50
2022-11-24T20:28:16.196Z,5.38
2022-11-24T20:30:43.478Z,4.70
2022-11-24T20:33:10.648Z,5.40
2022-11-24T20:35:37.935Z,7.03
2022-11-24T20:38:05.100Z,4.93
2022-11-24T20:40:32.463Z,5.65
2022-11-24T20:42:59.716Z,5.93
2022-11-24T20:45:27.009Z,5.82
2022-11-24T20:47:54.257Z,5.63
2022-11-24T20:50:21.532Z,5.50
2022-11-24T20:52:48.681Z,5.28
2022-11-24T20:55:15.899Z,5.55
2022-11-24T20:57:43.089Z,4.03
2022-11-24T21:00:10.392Z,7.75
2022-11-24T21:02:37.673Z,5.57
2022-11-24T21:05:05.115Z,5.65
2022-11-24T21:07:32.294Z,4.93
2022-11-24T21:09:59.570Z,5.50
2022-11-24T21:12:26.844Z,5.57
2022-11-24T21:14:54.056Z,5.55
2022-11-24T21:17:21.579Z,4.18
2022-11-24T21:19:48.743Z,5.15
2022-11-24T21:22:16.015Z,4.95
2022-11-24T21:24:43.212Z,4.80
2022-11-24T21:27:10.476Z,7.85
2022-11-24T21:29:37.678Z,4.97
2022-11-24T21:32:04.985Z,5.40
2022-11-24T21:34:32.235Z,4.30
2022-11-24T21:36:59.472Z,4.55
2022-11-24T21:39:27.204Z,5.07
2022-11-24T21:41:54.670Z,4.47
2022-11-24T21:44:21.971Z,3.78
2022-11-24T21:46:54.427Z,6.93
2022-11-24T21:49:23.339Z,5.60
2022-11-24T21:51:55.472Z,3.53
2022-11-24T21:54:23.095Z,4.78
2022-11-24T21:56:50.256Z,4.30
2022-11-24T21:59:17.591Z,4.50
2022-11-24T22:01:44.845Z,4.50
2022-11-24T22:04:12.060Z,6.13
2022-11-24T22:06:39.239Z,3.20
2022-11-24T22:09:06.530Z,4.65
2022-11-24T22:11:33.680Z,4.43
2022-11-24T22:14:00.983Z,6.25
2022-11-24T22:16:28.260Z,4.78
2022-11-24T22:18:55.599Z,4.22
2022-11-24T22:21:24.077Z,3.85
2022-11-24T22:23:51.996Z,4.40
2022-11-24T22:26:19.153Z,6.43
2022-11-24T22:28:46.437Z,3.65
2022-11-24T22:31:13.815Z,3.92
2022-11-24T22:33:41.180Z,4.57
2022-11-24T22:36:08.422Z,4.90
2022-11-24T22:38:35.686Z,3.88
2022-11-24T22:41:02.978Z,4.47
2022-11-24T22:43:30.596Z,4.90
2022-11-24T22:45:57.797Z,4.95
2022-11-24T22:48:25.055Z,4.35
2022-11-24T22:50:52.302Z,5.40
2022-11-24T22:53:19.584Z,4.80
2022-11-24T22:55:46.766Z,5.38
2022-11-24T22:58:13.962Z,5.78
2022-11-24T23:00:41.236Z,4.30
2022-11-24T23:03:08.436Z,4.15
2022-11-24T23:05:35.824Z,5.63
2022-11-24T23:08:03.104Z,4.70
2022-11-24T23:10:30.327Z,3.80
2022-11-24T23:12:57.488Z,4.07
2022-11-24T23:15:24.817Z,4.50
2022-11-24T23:17:52.040Z,3.72
2022-11-24T23:20:19.331Z,3.90
2022-11-24T23:22:46.568Z,4.45
2022-11-24T23:25:13.865Z,4.72
2022-11-24T23:27:41.029Z,3.85
2022-11-24T23:30:08.235Z,3.42
2022-11-24T23:32:35.391Z,3.20
2022-11-24T23:35:02.747Z,5.07
2022-11-24T23:37:52.192Z,4.55
2022-11-24T23:40:17.203Z,4.28
2022-11-24T23:42:44.418Z,3.92
2022-11-24T23:45:11.988Z,3.90
2022-11-24T23:47:39.223Z,5.25
2022-11-24T23:50:08.603Z,5.20
2022-11-24T23:52:35.818Z,4.70
2022-11-24T23:55:02.976Z,4.35
2022-11-24T23:57:30.159Z,4.10
2022-11-24T23:59:57.436Z,4.10
